Flight Track Log - Related Links

Times and Time Zones

All times are in EDT time to prevent confusion due to time zone crossing. See the GJS3647 flight status page for this flight to view local times or setup timezone preferences in your user account.

Time Position Orientation Groundspeed Altitude Reporting Facility
EDT Latitude Longitude Course Direction KTS MPH feet Rate Location/Type
Mon 06:16:50 AM 35.8664 -78.8139 270° West 169 194 1,300  Level Washington Center
Mon 06:18:09 AM 35.8667 -78.8881 270° West 201 231 4,200 2,072 Climbing Washington Center
Mon 06:19:09 AM 35.8894 -78.9661 290° West 214 246 6,100 2,339 Climbing Washington Center
Mon 06:20:07 AM 35.9161 -79.0594 289° West 254 292 8,800 2,542 Climbing Washington Center
Mon 06:21:07 AM 35.9444 -79.1556 290° West 295 339 11,100 2,132 Climbing Washington Center
Mon 06:22:08 AM 35.9747 -79.2622 289° West 320 368 13,100 1,933 Climbing Washington Center
Mon 06:24:07 AM 35.9817 -79.4961 272° West 352 405 16,900 2,090 Climbing Washington Center
Mon 06:25:06 AM 36.0325 -79.6039 300° West 357 411 19,300 1,714 Climbing Washington Center
Mon 06:27:16 AM 35.9803 -79.8433 255° West 350 403 22,300 1,326 Climbing Atlanta Center
Mon 06:28:16 AM 35.9553 -79.9678 256° West 361 415 23,500 1,100 Climbing Atlanta Center
Mon 06:29:16 AM 35.9247 -80.1156 256° West 384 442 24,500 950 Climbing Atlanta Center
Mon 06:30:16 AM 35.9061 -80.2522 260° West 404 465 25,400 900 Climbing Atlanta Center
Mon 06:31:16 AM 35.9786 -80.3772 306° West 408 470 26,300 850 Climbing Atlanta Center
Mon 06:32:16 AM 36.0800 -80.4908 318° Northwest 443 510 27,100 1,000 Climbing Atlanta Center
Mon 06:33:16 AM 36.1856 -80.6044 319° Northwest 469 540 28,300 1,000 Climbing Atlanta Center
Mon 06:34:16 AM 36.2867 -80.7211 317° Northwest 490 564 29,100 700 Climbing Atlanta Center
Mon 06:35:16 AM 36.3792 -80.8231 318° Northwest 490 564 29,700 650 Climbing Atlanta Center
Mon 06:36:16 AM 36.4844 -80.9428 318° Northwest 495 570 30,400 700 Climbing Atlanta Center
Mon 06:37:16 AM 36.5894 -81.0603 318° Northwest 500 575 31,100 750 Climbing Atlanta Center
Mon 06:38:16 AM 36.6944 -81.1831 317° Northwest 511 588 31,900 850 Climbing Atlanta Center
Mon 06:39:16 AM 36.8081 -81.3192 316° Northwest 511 588 32,800 826 Climbing Atlanta Center
Mon 06:40:05 AM 36.8936 -81.4100 320° Northwest 522 601 33,400 927 Climbing Indianapolis Center
Mon 06:41:06 AM 36.9989 -81.5311 317° Northwest 518 596 34,500 1,033 Climbing Indianapolis Center
Mon 06:42:07 AM 37.1017 -81.6511 317° Northwest 509 586 35,500 942 Climbing Indianapolis Center
Mon 06:43:07 AM 37.2047 -81.7708 317° Northwest 507 583 36,400 893 Climbing Indianapolis Center
Mon 06:44:08 AM 37.3053 -81.8883 317° Northwest 497 572 37,300 787 Climbing Indianapolis Center
Mon 06:45:09 AM 37.4050 -82.0061 317° Northwest 494 568 38,000 347 Climbing Indianapolis Center
Mon 06:46:09 AM 37.5039 -82.1247 316° Northwest 493 567 38,000  Level Indianapolis Center
Mon 06:47:10 AM 37.5928 -82.2867 305° West 483 556 38,000  Level Indianapolis Center
Mon 06:48:11 AM 37.6681 -82.4267 304° West 484 557 38,000  Level Indianapolis Center
Mon 06:49:11 AM 37.7422 -82.5619 305° West 473 544 38,000  Level Indianapolis Center
Mon 06:50:12 AM 37.8361 -82.6869 314° West 491 565 38,000  Level Indianapolis Center
Mon 06:51:13 AM 37.9300 -82.8139 313° West 494 568 38,000  Level Indianapolis Center
Mon 06:52:14 AM 38.0381 -82.9311 320° Northwest 510 587 38,000  Level Indianapolis Center
Mon 06:53:14 AM 38.1483 -83.0486 320° Northwest 517 595 38,000  Level Indianapolis Center
Mon 06:54:15 AM 38.2597 -83.1661 320° Northwest 519 597 38,000  Level Indianapolis Center
Mon 06:55:16 AM 38.3692 -83.2853 320° Northwest 518 596 38,000  Level Indianapolis Center
Mon 06:56:17 AM 38.4794 -83.4042 320° Northwest 519 597 38,000  Level Indianapolis Center
Mon 06:57:17 AM 38.5883 -83.5236 319° Northwest 517 595 38,000  Level Indianapolis Center
Mon 06:58:18 AM 38.6942 -83.6397 319° Northwest 517 595 38,000  Level Indianapolis Center
Mon 06:59:19 AM 38.8039 -83.7589 320° Northwest 513 590 38,000  Level Indianapolis Center
Mon 07:00:20 AM 38.9136 -83.8792 320° Northwest 513 590 38,000 -98 Level Indianapolis Center
Mon 07:01:21 AM 39.0225 -84.0006 319° Northwest 512 589 37,800 -645 Descending Indianapolis Center
Mon 07:02:21 AM 39.1283 -84.1197 319° Northwest 503 579 36,700 -1,041 Descending Indianapolis Center
Mon 07:03:22 AM 39.2342 -84.2378 319° Northwest 497 572 35,700 -1,279 Descending Indianapolis Center
Mon 07:04:23 AM 39.3403 -84.3558 319° Northwest 499 574 34,100 -1,770 Descending Indianapolis Center
Mon 07:05:24 AM 39.4439 -84.4733 319° Northwest 493 567 32,100 -2,016 Descending Indianapolis Center
Mon 07:06:25 AM 39.5461 -84.5869 319° Northwest 483 556 30,000 -1,869 Descending Indianapolis Center
Mon 07:07:26 AM 39.6442 -84.6969 319° Northwest 466 536 28,300 -992 Descending Indianapolis Center
Mon 07:08:26 AM 39.7364 -84.8025 319° Northwest 445 512 28,000 -149 Descending Indianapolis Center
Mon 07:09:27 AM 39.8344 -84.9153 319° Northwest 452 520 28,000  Level Indianapolis Center
Mon 07:10:28 AM 39.9325 -85.0264 319° Northwest 467 537 28,000  Level Indianapolis Center
Mon 07:11:29 AM 40.0319 -85.1406 319° Northwest 473 544 28,000 -197 Level Indianapolis Center
Mon 07:12:30 AM 40.1272 -85.2514 318° Northwest 464 534 27,600 -787 Descending Indianapolis Center
Mon 07:13:31 AM 40.2425 -85.3844 319° Northwest 464 534 26,400 -787 Descending Indianapolis Center
Mon 07:14:32 AM 40.3339 -85.4950 317° Northwest 453 521 26,000 -590 Descending Indianapolis Center
Mon 07:15:33 AM 40.4108 -85.6186 309° West 442 509 25,200 -984 Descending Indianapolis Center
Mon 07:16:34 AM 40.4878 -85.7425 309° West 440 506 24,000 -1,033 Descending Indianapolis Center
Mon 07:17:35 AM 40.5633 -85.8644 309° West 436 502 23,100 -934 Descending Indianapolis Center
Mon 07:18:36 AM 40.6350 -85.9831 309° West 421 484 22,100 -541 Descending Indianapolis Center
Mon 07:19:37 AM 40.7083 -86.1017 309° West 421 484 22,000 -49 Descending Indianapolis Center
Mon 07:20:38 AM 40.7817 -86.2211 309° West 421 484 22,000  Level Indianapolis Center
Mon 07:21:39 AM 40.8547 -86.3408 309° West 420 483 22,000 -49 Level Indianapolis Center
Mon 07:22:40 AM 40.9278 -86.4631 308° West 424 488 21,900 -1,230 Descending Indianapolis Center
Mon 07:23:41 AM 41.0133 -86.6050 309° West 411 473 19,500 -2,066 Descending Indianapolis Center
Mon 07:24:42 AM 41.0828 -86.7197 309° West 403 464 17,700 -1,770 Descending Indianapolis Center
Mon 07:25:43 AM 41.1489 -86.8325 308° West 397 457 15,900 -1,721 Descending Indianapolis Center
Mon 07:26:44 AM 41.2131 -86.9403 308° West 387 445 14,200 -1,672 Descending Indianapolis Center

Login

Don't have an account? Register now (free) for customized features, flight alerts, and more!